Airfield :
LOGIN :

Register | Disclaimer

   EN    FR    IT 

 










Legend :    VFR   Marginal VFR   IFR   Intensive IFR   Very Intensive IFR
Visi :
Ceiling :
>= 8 km
>= 3000ft
5 to 8 km
1000 to 3000 ft
1500m to 5 km
500 to 1000 ft
800 to 1500m
200 to 500 ft
< 800m
< 200 ft
Symbols :   Thunderstorms  Fog  Heavy snow  Heavy precipitations  Wind > 20 kt
SIGMETs :     Misc.  Thunderstorms  Icing  Turbulence  Mountain Waves  Volcanic Ashes






- Airport Elevation : 19 ft
- IATA code : LCY


EGLC - London City

CURRENT METAR :
  • 120320Z AUTO 24006KT 9999 NCD 03/01 Q1002

EXPIRED METARs :
  • 120250Z AUTO 23007KT 9999 NCD 03/01 Q1002
  • 120220Z AUTO 25008KT 9999 NCD 03/01 Q1003
  • 120150Z AUTO 25007KT 9999 NCD 03/01 Q1003
  • 120120Z AUTO 24007KT 9999 NCD 03/01 Q1003
  • 120050Z AUTO 25009KT 9999 NCD 03/01 Q1003
  • 120020Z AUTO 24008KT 9999 NCD 03/02 Q1003

TAF TAF EGLC
Valid from the 12 at 03:00 until the 12 at 12:00 UTC


120158Z 1203/1212 23004KT 9999 FEW040
PROB30 1205/1207 8000
BECMG 1206/1209 16010KT
TEMPO 1208/1212 8000 -RA BKN012
PROB30
TEMPO 1211/1212 15015G25KT 4000 RA BKN009
ATIS : +44 20 7646 0224



MET'MAP, your aeronautical weather chart ! - Copyright ORBIFLY December 2007 - Disclaimer

ORBIFLY MET'MAP TEAM :

Programming & Development : Alexandra Zaïnal
Concept & original design : Baudouin d'Aumeries
Assistance for programming : Marc-Olivier Méhu
Technical & hardware support : Manuel Goepfert

Contact : metmap@orbifly.com




SOURCES & CREDITS :

   NOAA